Terminal Aerodrome Forecast
Issued by NWS

Home | Current Version | Previous Version | Text Only | Print | Product List | Glossary On
Versions: 1 2 3 4 5 6 7 8 9 10 11 12 13 14 15 16 17 18 19 20 21 22 23 24 25 26
000
FTUS45 KBOI 161748 CCA
TAFJER
TAF COR
KJER 161748Z 1618/1718 05007KT P6SM OVC200
      TEMPO 1618/1619 VRB10G20KT P6SM -SHRA SCT110 OVC200
     FM162000 32007KT P6SM SCT150
     FM170100 08007KT P6SM SKC
     FM171700 VRB05KT P6SM BKN250=

USA.gov is the U.S. government's official web portal to all federal, state and local government web resources and services.